Time;durP1;ratioP1;P1;durP2;ratioP2;P2;SDS_P1;SDS_P2;PMS_P1;PMS_P2;Temp;Humidity;BMP_temperature;BMP_pressure;BME280_temperature;BME280_humidity;BME280_pressure;Samples;Min_cycle;Max_cycle;Signal;HPM_P1;HPM_P2
2022/12/18 00:01:30;;;;;;;13.83;10.27;;;;;;;10.95;100.00;100170.62;1727399;82;20916;-62
2022/12/18 00:03:58;;;;;;;10.17;8.83;;;;;;;10.97;100.00;100187.38;1724471;82;21002;-58
2022/12/18 00:06:28;;;;;;;14.07;9.87;;;;;;;10.98;100.00;100179.05;1728061;82;22279;-57
2022/12/18 00:08:56;;;;;;;13.00;8.80;;;;;;;11.00;100.00;100169.26;1727541;82;21035;-58
2022/12/18 00:11:26;;;;;;;11.40;8.17;;;;;;;11.00;100.00;100161.44;1727586;82;20961;-59
2022/12/18 00:13:55;;;;;;;12.63;8.50;;;;;;;11.04;100.00;100170.49;1727588;82;20951;-58
2022/12/18 00:16:23;;;;;;;13.70;9.93;;;;;;;11.01;100.00;100172.17;1727412;82;21231;-66
2022/12/18 00:18:52;;;;;;;12.30;9.10;;;;;;;11.01;100.00;100161.23;1727581;82;22390;-58
2022/12/18 00:21:19;;;;;;;12.67;9.90;;;;;;;11.02;100.00;100141.97;1727860;82;21507;-59
2022/12/18 00:23:47;;;;;;;15.07;10.10;;;;;;;10.99;100.00;100142.88;1727486;82;20956;-64
2022/12/18 00:26:21;;;;;;;14.53;9.83;;;;;;;10.99;100.00;100106.36;1728050;82;21298;-58
2022/12/18 00:28:49;;;;;;;11.73;9.70;;;;;;;10.98;100.00;100018.66;1727226;82;20829;-60
2022/12/18 00:31:19;;;;;;;15.57;9.87;;;;;;;10.94;100.00;100069.09;1727648;82;21285;-58
2022/12/18 00:33:46;;;;;;;17.50;9.57;;;;;;;10.91;100.00;100101.59;1727546;82;20959;-67
2022/12/18 00:36:18;;;;;;;14.47;9.83;;;;;;;10.91;100.00;100145.92;1727820;82;21419;-58
2022/12/18 00:38:46;;;;;;;13.27;9.40;;;;;;;10.90;100.00;100184.70;1725787;82;20975;-58
2022/12/18 00:44:01;;;;;;;13.87;8.90;;;;;;;10.93;100.00;100180.92;1727322;82;21443;-58
2022/12/18 00:46:29;;;;;;;15.03;10.23;;;;;;;10.93;100.00;100154.85;1727465;82;20852;-59
2022/12/18 00:48:57;;;;;;;11.87;9.30;;;;;;;10.92;100.00;100150.64;1727696;82;21034;-57
2022/12/18 00:51:25;;;;;;;12.93;9.37;;;;;;;10.91;100.00;100149.83;1727747;82;20931;-58
2022/12/18 00:53:52;;;;;;;11.50;9.23;;;;;;;10.88;100.00;100144.19;1727602;82;20919;-59
2022/12/18 00:56:21;;;;;;;11.47;9.23;;;;;;;10.89;100.00;100149.70;1727178;82;22255;-63
2022/12/18 00:58:48;;;;;;;14.93;9.93;;;;;;;10.90;100.00;100140.38;1727362;82;20986;-58
2022/12/18 01:01:16;;;;;;;15.50;9.83;;;;;;;10.89;100.00;100157.02;1727634;82;20963;-58
2022/12/18 01:03:45;;;;;;;15.23;9.40;;;;;;;10.87;100.00;100162.94;1728059;82;21540;-62
2022/12/18 01:06:13;;;;;;;15.53;10.67;;;;;;;10.89;100.00;100158.83;1727959;82;20880;-57
2022/12/18 01:08:40;;;;;;;16.70;12.27;;;;;;;10.84;100.00;100167.22;1727685;82;22007;-58
2022/12/18 01:11:11;;;;;;;12.23;9.57;;;;;;;10.84;100.00;100159.39;1727795;82;20982;-57
2022/12/18 01:13:39;;;;;;;12.37;9.28;;;;;;;10.84;100.00;100162.50;1728181;82;20845;-57
2022/12/18 01:16:06;;;;;;;12.77;9.10;;;;;;;10.80;100.00;100149.53;1727788;82;21017;-59
2022/12/18 01:18:35;;;;;;;11.93;9.20;;;;;;;10.81;100.00;100153.24;1728440;82;21128;-58
2022/12/18 01:21:08;;;;;;;13.17;9.47;;;;;;;10.80;100.00;100139.91;1728388;82;21111;-58
2022/12/18 01:23:38;;;;;;;12.70;9.60;;;;;;;10.82;100.00;100135.30;1728542;83;20999;-58
2022/12/18 01:26:09;;;;;;;13.50;9.67;;;;;;;10.84;100.00;100133.32;1727935;82;20949;-60
2022/12/18 01:28:37;;;;;;;12.63;9.17;;;;;;;10.83;100.00;100132.19;1727591;82;22117;-58
2022/12/18 01:31:21;;;;;;;15.10;9.37;;;;;;;10.80;100.00;100124.77;1728886;83;21007;-58
2022/12/18 01:33:48;;;;;;;12.70;9.20;;;;;;;10.78;100.00;100144.98;1728336;83;21298;-65
2022/12/18 01:36:19;;;;;;;12.47;8.47;;;;;;;10.71;100.00;100133.98;1727841;82;22109;-58
2022/12/18 01:38:46;;;;;;;13.22;9.98;;;;;;;10.70;100.00;100115.94;1728705;83;20967;-58
2022/12/18 01:41:14;;;;;;;12.70;9.00;;;;;;;10.68;100.00;100134.39;1727992;83;20990;-58
2022/12/18 01:43:47;;;;;;;12.63;8.90;;;;;;;10.67;100.00;100129.34;1727567;83;21106;-60
2022/12/18 01:46:15;;;;;;;11.33;9.10;;;;;;;10.66;100.00;100131.64;1727690;83;21690;-57
2022/12/18 01:48:43;;;;;;;12.73;8.77;;;;;;;10.64;100.00;100129.20;1728157;82;21003;-58
2022/12/18 01:51:10;;;;;;;12.50;9.30;;;;;;;10.63;100.00;100130.21;1728248;82;21400;-58
2022/12/18 01:53:37;;;;;;;14.53;8.57;;;;;;;10.62;100.00;100146.05;1728494;83;20977;-60
2022/12/18 01:56:06;;;;;;;13.47;9.63;;;;;;;10.62;100.00;100148.16;1727333;82;20967;-61
2022/12/18 01:58:47;;;;;;;14.00;9.93;;;;;;;10.68;100.00;100155.72;1728105;83;21411;-58
2022/12/18 02:01:14;;;;;;;12.95;9.58;;;;;;;10.67;100.00;100146.28;1728172;83;21535;-66
2022/12/18 02:03:43;;;;;;;11.90;9.50;;;;;;;10.66;100.00;100139.47;1727290;82;21394;-58
2022/12/18 02:06:29;;;;;;;13.07;8.87;;;;;;;10.64;100.00;100145.34;1712802;82;21929;-63
2022/12/18 02:09:14;;;;;;;12.30;9.77;;;;;;;10.62;100.00;100146.05;1711879;83;21027;-58
2022/12/18 02:11:50;;;;;;;16.00;10.60;;;;;;;10.61;100.00;100143.94;1711596;82;21857;-66
2022/12/18 02:14:56;;;;;;;13.80;9.93;;;;;;;10.62;100.00;100152.06;1712053;83;21054;-58
2022/12/18 02:17:27;;;;;;;12.20;9.83;;;;;;;10.62;100.00;100142.94;1711971;83;21066;-60
2022/12/18 02:20:33;;;;;;;13.78;9.30;;;;;;;10.62;100.00;100155.97;1712371;83;21077;-57
2022/12/18 02:23:34;;;;;;;13.70;9.30;;;;;;;10.64;100.00;100163.59;1712353;83;21114;-58
2022/12/18 02:26:20;;;;;;;12.77;9.00;;;;;;;10.64;100.00;100156.58;1712277;83;21982;-57
2022/12/18 02:28:56;;;;;;;12.17;9.07;;;;;;;10.64;100.00;100167.51;1712221;83;21066;-58
2022/12/18 02:31:31;;;;;;;14.20;9.20;;;;;;;10.66;100.00;100161.12;1711833;83;21062;-59
2022/12/18 02:34:00;;;;;;;10.33;8.40;;;;;;;10.67;100.00;100151.50;1694146;83;21469;-61
2022/12/18 02:36:28;;;;;;;11.57;8.70;;;;;;;10.68;100.00;100155.24;1712704;83;21534;-59
2022/12/18 02:38:56;;;;;;;11.83;7.83;;;;;;;10.81;100.00;100158.96;1712618;83;21161;-61
2022/12/18 02:41:23;;;;;;;12.53;9.23;;;;;;;10.80;100.00;100171.70;1711911;83;21078;-58
2022/12/18 02:43:59;;;;;;;11.07;8.70;;;;;;;10.74;100.00;100174.53;1694416;83;20978;-59
2022/12/18 02:46:41;;;;;;;11.80;9.07;;;;;;;10.68;100.00;100177.40;1711846;82;21963;-58
2022/12/18 02:49:33;;;;;;;11.00;8.53;;;;;;;10.65;100.00;100182.98;1712059;83;21105;-58
2022/12/18 02:52:33;;;;;;;12.80;8.95;;;;;;;10.68;100.00;100181.78;1712526;83;21395;-59
2022/12/18 02:55:26;;;;;;;;;;;;;;;10.69;100.00;100184.22;1714738;83;21462;-59
2022/12/18 02:58:27;;;;;;;12.00;9.27;;;;;;;10.71;100.00;100193.15;1712039;83;20214;-58
2022/12/18 03:01:13;;;;;;;12.63;8.77;;;;;;;10.76;100.00;100193.42;1711975;83;21018;-59
2022/12/18 03:03:52;;;;;;;9.87;8.20;;;;;;;10.79;100.00;100194.83;1712362;83;21046;-58
2022/12/18 03:06:40;;;;;;;10.43;7.30;;;;;;;10.71;100.00;100195.75;1712395;82;21847;-58
2022/12/18 03:09:14;;;;;;;11.40;8.27;;;;;;;10.67;100.00;100201.84;1712605;83;21043;-58
2022/12/18 03:14:30;;;;;;;11.30;8.20;;;;;;;10.73;100.00;100200.30;1711873;83;21518;-58
2022/12/18 03:17:01;;;;;;;10.83;8.10;;;;;;;10.73;100.00;100199.50;1712257;83;21489;-58
2022/12/18 03:19:31;;;;;;;10.40;8.00;;;;;;;10.72;100.00;100201.30;1712029;83;21900;-61
2022/12/18 03:22:00;;;;;;;11.93;8.47;;;;;;;10.73;100.00;100200.30;1712053;83;21467;-66
2022/12/18 03:24:30;;;;;;;9.93;7.73;;;;;;;10.76;100.00;100206.45;1712494;83;21452;-60
2022/12/18 03:27:05;;;;;;;11.40;8.90;;;;;;;10.77;100.00;100217.19;1712698;83;21791;-58
2022/12/18 03:29:48;;;;;;;12.07;8.40;;;;;;;10.77;100.00;100217.19;1711949;83;21015;-59
2022/12/18 03:32:20;;;;;;;11.53;7.40;;;;;;;10.77;100.00;100218.49;1712355;83;21791;-61
2022/12/18 03:34:47;;;;;;;11.28;8.70;;;;;;;10.76;100.00;100214.28;1712616;82;21059;-59
2022/12/18 03:37:15;;;;;;;10.50;8.10;;;;;;;10.77;100.00;100226.31;1711895;83;21482;-58
2022/12/18 03:39:42;;;;;;;10.17;8.20;;;;;;;10.78;100.00;100231.03;1712026;83;21252;-60
2022/12/18 03:42:23;;;;;;;12.00;8.40;;;;;;;10.78;100.00;100234.44;1712092;83;21515;-59
2022/12/18 03:45:19;;;;;;;9.53;8.00;;;;;;;10.77;100.00;100236.74;1712144;82;21178;-67
2022/12/18 03:48:11;;;;;;;10.90;7.93;;;;;;;10.78;100.00;100244.87;1712111;83;21479;-60
2022/12/18 03:50:50;;;;;;;11.90;7.80;;;;;;;10.76;100.00;100239.52;1711803;83;20963;-59
2022/12/18 03:53:57;;;;;;;10.70;7.90;;;;;;;10.72;100.00;100252.14;1712063;83;21094;-57
2022/12/18 03:56:30;;;;;;;9.50;5.87;;;;;;;10.65;100.00;100252.56;1710979;83;21251;-58
2022/12/18 03:58:59;;;;;;;7.37;5.50;;;;;;;10.59;100.00;100261.09;1712498;83;21295;-57
2022/12/18 04:01:32;;;;;;;7.47;5.60;;;;;;;10.46;100.00;100264.37;1712591;83;21134;-60
2022/12/18 04:04:00;;;;;;;7.03;5.07;;;;;;;10.31;100.00;100274.00;1712182;83;21031;-64
2022/12/18 04:06:31;;;;;;;6.62;5.12;;;;;;;10.14;100.00;100276.73;1725594;82;21771;-60
2022/12/18 04:09:00;;;;;;;7.93;4.40;;;;;;;9.94;100.00;100285.57;1727972;82;20980;-60
2022/12/18 04:12:57;;;;;;;8.37;5.90;;;;;;;9.20;100.00;100297.56;1879178;75;22540;-60
2022/12/18 04:15:25;;;;;;;8.17;6.00;;;;;;;9.04;100.00;100306.77;1853834;76;20950;-60
2022/12/18 04:17:52;;;;;;;8.00;5.70;;;;;;;8.78;100.00;100320.88;1856852;77;21238;-59
2022/12/18 04:20:21;;;;;;;8.33;5.50;;;;;;;8.38;100.00;100336.95;1856658;77;21452;-60
2022/12/18 04:22:48;;;;;;;8.13;6.20;;;;;;;8.38;100.00;100336.95;1855737;77;20968;-61
2022/12/18 04:25:16;;;;;;;7.83;5.30;;;;;;;8.18;100.00;100344.27;1856296;77;21353;-60
2022/12/18 04:27:45;;;;;;;7.63;5.57;;;;;;;8.18;100.00;100344.27;1854152;77;20947;-61
2022/12/18 04:30:12;;;;;;;9.93;6.87;;;;;;;8.04;100.00;100340.55;1856662;77;21311;-59
2022/12/18 04:32:40;;;;;;;9.30;6.37;;;;;;;7.91;100.00;100351.91;1856515;77;21576;-60
2022/12/18 04:35:10;;;;;;;9.30;5.83;;;;;;;7.79;100.00;100368.29;1856307;77;23008;-60
2022/12/18 04:37:39;;;;;;;7.67;5.53;;;;;;;7.68;100.00;100371.20;1856453;77;21992;-59
2022/12/18 04:40:08;;;;;;;8.30;5.70;;;;;;;7.57;100.00;100379.30;1856542;77;21759;-59
2022/12/18 04:42:37;;;;;;;8.70;6.03;;;;;;;7.44;100.00;100390.64;1856043;77;21842;-66
2022/12/18 04:45:06;;;;;;;8.93;5.67;;;;;;;7.24;100.00;100409.55;1825191;77;20923;-59
2022/12/18 04:47:33;;;;;;;7.10;4.87;;;;;;;7.24;100.00;100409.55;1856945;77;22475;-58
2022/12/18 04:50:00;;;;;;;8.23;5.03;;;;;;;7.18;100.00;100409.69;1856615;76;21549;-58
2022/12/18 04:52:31;;;;;;;6.27;4.30;;;;;;;7.14;100.00;100414.86;1856795;77;21601;-58
2022/12/18 04:54:58;;;;;;;6.27;3.87;;;;;;;7.11;100.00;100421.64;1855863;77;21530;-67
2022/12/18 04:57:26;;;;;;;5.50;3.63;;;;;;;7.03;100.00;100430.20;1856116;77;21857;-57
2022/12/18 04:59:53;;;;;;;5.37;3.07;;;;;;;6.83;100.00;100429.63;1856528;77;21623;-58
2022/12/18 05:02:20;;;;;;;4.93;3.33;;;;;;;6.70;100.00;100431.00;1855952;77;21435;-59
2022/12/18 05:04:47;;;;;;;5.40;3.03;;;;;;;6.70;100.00;100431.00;1855455;77;21478;-65
2022/12/18 05:07:15;;;;;;;5.10;3.03;;;;;;;6.57;100.00;100443.89;1855282;77;21624;-58
2022/12/18 05:09:43;;;;;;;3.87;2.53;;;;;;;6.31;100.00;100445.64;1856820;77;21574;-57
2022/12/18 05:12:11;;;;;;;4.47;2.80;;;;;;;6.20;100.00;100454.94;1850377;77;21530;-58
2022/12/18 05:14:39;;;;;;;3.73;2.53;;;;;;;6.20;100.00;100454.94;1846401;77;21785;-67
2022/12/18 05:17:06;;;;;;;4.53;3.20;;;;;;;5.97;100.00;100463.64;1845493;77;21976;-58
2022/12/18 05:19:33;;;;;;;4.80;3.10;;;;;;;5.83;100.00;100465.77;1846580;77;21440;-57
2022/12/18 05:22:01;;;;;;;4.73;3.10;;;;;;;5.83;100.00;100465.77;1846442;77;21146;-58
2022/12/18 05:24:28;;;;;;;4.70;3.20;;;;;;;5.76;100.00;100475.55;1845829;77;21376;-58
2022/12/18 05:26:55;;;;;;;5.40;3.40;;;;;;;5.68;100.00;100467.20;1844640;77;21189;-63
2022/12/18 05:29:23;;;;;;;5.20;3.53;;;;;;;5.56;100.00;100464.02;1845488;77;21214;-57
2022/12/18 05:31:50;;;;;;;4.77;3.43;;;;;;;5.56;100.00;100464.02;1845159;77;21767;-58
2022/12/18 05:34:18;;;;;;;5.33;3.93;;;;;;;5.51;100.00;100461.54;1845268;77;21244;-58
2022/12/18 05:36:45;;;;;;;5.13;3.97;;;;;;;5.44;100.00;100462.59;1845212;77;21137;-66
2022/12/18 05:39:12;;;;;;;5.57;3.60;;;;;;;5.37;100.00;100465.41;1845069;77;21101;-59
2022/12/18 05:41:39;;;;;;;4.97;3.83;;;;;;;5.29;100.00;100470.01;1845500;77;21805;-58
2022/12/18 05:44:07;;;;;;;5.77;3.90;;;;;;;5.21;100.00;100478.15;1845179;77;21139;-58
2022/12/18 05:46:34;;;;;;;4.87;3.70;;;;;;;5.13;100.00;100485.32;1844860;77;21127;-58
2022/12/18 05:49:02;;;;;;;5.97;3.80;;;;;;;5.04;100.00;100499.10;1844270;77;21285;-65
2022/12/18 05:51:31;;;;;;;6.13;4.30;;;;;;;4.98;100.00;100500.95;1845024;77;21497;-58
2022/12/18 05:53:58;;;;;;;6.30;4.70;;;;;;;4.91;100.00;100504.56;1845369;77;21729;-59
2022/12/18 05:56:26;;;;;;;6.70;4.20;;;;;;;4.84;100.00;100516.40;1845129;77;21207;-60
2022/12/18 05:58:53;;;;;;;5.87;4.07;;;;;;;4.78;100.00;100523.43;1844571;77;21085;-60
2022/12/18 06:01:24;;;;;;;4.90;4.17;;;;;;;4.75;100.00;100528.87;1844198;77;21262;-59
2022/12/18 06:03:51;;;;;;;5.87;4.65;;;;;;;4.70;100.00;100529.73;1844993;77;20957;-58
2022/12/18 06:06:22;;;;;;;7.00;5.10;;;;;;;4.64;100.00;100537.09;1845475;77;21003;-58
2022/12/18 06:08:49;;;;;;;6.57;4.97;;;;;;;4.62;100.00;100540.31;1845119;77;21733;-60
2022/12/18 06:11:22;;;;;;;5.80;4.90;;;;;;;4.58;100.00;100544.12;1842874;77;21118;-59
2022/12/18 06:13:51;;;;;;;5.97;5.17;;;;;;;4.55;100.00;100549.55;1830820;77;21320;-58
2022/12/18 06:16:19;;;;;;;5.33;4.53;;;;;;;4.52;100.00;100561.44;1830883;78;21221;-58
2022/12/18 06:18:46;;;;;;;6.30;5.10;;;;;;;4.48;100.00;100561.37;1831084;78;21154;-58
2022/12/18 06:21:13;;;;;;;6.63;5.33;;;;;;;4.49;100.00;100559.59;1829388;78;22365;-59
2022/12/18 06:23:41;;;;;;;4.80;4.00;;;;;;;4.46;100.00;100562.45;1830032;78;21720;-59
2022/12/18 06:26:11;;;;;;;5.60;4.00;;;;;;;4.42;100.00;100556.73;1830578;78;21494;-58
2022/12/18 06:28:38;;;;;;;5.17;3.97;;;;;;;4.43;100.00;100562.70;1830715;78;21194;-58
2022/12/18 06:31:05;;;;;;;5.43;4.17;;;;;;;4.41;100.00;100561.56;1830939;78;21068;-59
2022/12/18 06:33:32;;;;;;;5.83;3.67;;;;;;;4.41;100.00;100569.31;1829841;78;22319;-62
2022/12/18 06:36:06;;;;;;;5.83;3.77;;;;;;;4.42;100.00;100579.16;1829688;78;21113;-59
2022/12/18 06:38:34;;;;;;;5.00;3.70;;;;;;;4.42;100.00;100591.58;1830431;77;21301;-61
2022/12/18 06:41:07;;;;;;;5.50;3.53;;;;;;;4.44;100.00;100592.75;1830259;77;21180;-59
2022/12/18 06:43:36;;;;;;;5.00;3.87;;;;;;;4.44;100.00;100599.20;1829560;77;21228;-66
2022/12/18 06:46:04;;;;;;;4.90;3.97;;;;;;;4.44;100.00;100605.66;1830080;78;22103;-59
2022/12/18 06:48:31;;;;;;;5.10;4.13;;;;;;;4.40;100.00;100602.53;1830488;78;21248;-58
2022/12/18 06:50:58;;;;;;;6.23;4.57;;;;;;;4.36;100.00;100614.08;1830635;77;21037;-58
2022/12/18 06:53:32;;;;;;;5.67;4.27;;;;;;;4.34;100.00;100618.06;1830031;78;21217;-64
2022/12/18 06:56:07;;;;;;;5.90;4.43;;;;;;;4.33;100.00;100615.63;1830856;78;21565;-58
2022/12/18 06:58:35;;;;;;;6.27;4.67;;;;;;;4.27;100.00;100614.86;1831155;78;21135;-59
2022/12/18 07:01:07;;;;;;;7.67;5.10;;;;;;;4.25;100.00;100622.74;1831076;77;21081;-58
2022/12/18 07:03:34;;;;;;;6.20;4.13;;;;;;;4.18;100.00;100631.96;1829914;77;21245;-60
2022/12/18 07:06:01;;;;;;;4.87;3.87;;;;;;;4.12;100.00;100638.45;1830798;78;21427;-58
2022/12/18 07:08:30;;;;;;;4.57;3.43;;;;;;;4.07;100.00;100639.33;1830974;78;21022;-58
2022/12/18 07:10:57;;;;;;;4.30;3.20;;;;;;;4.03;100.00;100653.44;1830942;76;21867;-64
2022/12/18 07:13:25;;;;;;;5.00;3.60;;;;;;;4.02;100.00;100661.31;1850764;77;21182;-60
2022/12/18 07:15:52;;;;;;;5.00;3.92;;;;;;;4.04;100.00;100663.28;1855775;77;21617;-59
2022/12/18 07:18:20;;;;;;;5.00;3.77;;;;;;;4.05;100.00;100668.77;1855489;77;21030;-59
2022/12/18 07:20:47;;;;;;;5.07;3.87;;;;;;;4.03;100.00;100675.36;1855541;77;21206;-58
2022/12/18 07:23:15;;;;;;;5.47;3.70;;;;;;;4.04;100.00;100674.88;1855000;77;21215;-59
2022/12/18 07:25:42;;;;;;;5.47;3.90;;;;;;;4.02;100.00;100678.09;1854939;77;21418;-59
2022/12/18 07:28:12;;;;;;;5.80;4.13;;;;;;;3.99;100.00;100681.73;1855451;77;21249;-58
2022/12/18 07:30:39;;;;;;;5.33;3.93;;;;;;;3.98;100.00;100687.00;1855777;77;21032;-58
2022/12/18 07:33:06;;;;;;;7.73;4.43;;;;;;;3.97;100.00;100682.31;1855693;77;21083;-59
2022/12/18 07:35:37;;;;;;;4.87;3.77;;;;;;;3.96;100.00;100686.33;1855182;77;21209;-67
2022/12/18 07:38:04;;;;;;;5.43;3.87;;;;;;;3.92;100.00;100697.38;1855419;76;21743;-59
2022/12/18 07:40:32;;;;;;;5.07;3.70;;;;;;;3.88;100.00;100708.42;1855955;77;21241;-58
2022/12/18 07:42:59;;;;;;;6.27;3.67;;;;;;;3.85;100.00;100706.09;1855827;77;21027;-58
2022/12/18 07:45:30;;;;;;;4.57;2.97;;;;;;;3.83;100.00;100708.47;1856000;77;21227;-59
2022/12/18 07:47:59;;;;;;;4.57;3.30;;;;;;;3.77;100.00;100713.66;1856271;77;21714;-60
2022/12/18 07:50:26;;;;;;;3.90;2.50;;;;;;;3.76;100.00;100712.50;1856435;77;21188;-60
2022/12/18 07:52:54;;;;;;;4.00;2.47;;;;;;;3.74;100.00;100720.83;1856436;77;21268;-59
2022/12/18 07:55:21;;;;;;;3.77;2.23;;;;;;;3.72;100.00;100720.16;1856427;77;21063;-60
2022/12/18 07:57:48;;;;;;;4.50;2.60;;;;;;;3.73;100.00;100723.06;1855277;77;21662;-62
2022/12/18 08:00:17;;;;;;;3.67;2.43;;;;;;;3.75;100.00;100718.59;1855899;77;22627;-59
2022/12/18 08:02:44;;;;;;;4.00;2.40;;;;;;;3.75;100.00;100726.32;1856343;77;21105;-58
2022/12/18 08:05:11;;;;;;;3.50;2.10;;;;;;;3.71;100.00;100718.02;1856365;77;21056;-58
2022/12/18 08:07:38;;;;;;;3.67;2.50;;;;;;;3.70;100.00;100729.77;1855962;77;21205;-65
2022/12/18 08:10:07;;;;;;;3.43;2.50;;;;;;;3.70;100.00;100723.31;1855677;77;21701;-60
2022/12/18 08:12:34;;;;;;;4.20;2.63;;;;;;;3.69;100.00;100716.53;1856001;77;22387;-58
2022/12/18 08:15:01;;;;;;;3.83;2.45;;;;;;;3.70;100.00;100707.84;1855978;77;21115;-60
2022/12/18 08:17:29;;;;;;;4.33;2.60;;;;;;;3.71;100.00;100714.16;1856369;77;20954;-58
2022/12/18 08:19:57;;;;;;;5.53;2.80;;;;;;;3.73;100.00;100716.62;1854982;77;21124;-63
2022/12/18 08:22:24;;;;;;;4.00;2.80;;;;;;;3.75;100.00;100727.61;1856421;77;21628;-58
2022/12/18 08:24:51;;;;;;;3.67;2.57;;;;;;;3.77;100.00;100721.87;1856104;77;21194;-60
2022/12/18 08:27:20;;;;;;;3.63;2.13;;;;;;;3.77;100.00;100735.58;1855720;77;21150;-61
2022/12/18 08:29:49;;;;;;;4.17;2.73;;;;;;;3.77;100.00;100731.70;1855556;77;21279;-60
2022/12/18 08:32:16;;;;;;;3.47;2.10;;;;;;;3.79;100.00;100728.98;1855030;77;21760;-59
2022/12/18 08:34:45;;;;;;;4.23;2.50;;;;;;;3.74;100.00;100729.38;1855810;77;21481;-58
2022/12/18 08:37:12;;;;;;;3.58;2.15;;;;;;;3.72;100.00;100725.31;1855723;77;21149;-59
2022/12/18 08:39:40;;;;;;;4.30;2.70;;;;;;;3.70;100.00;100737.50;1855382;77;20935;-68
2022/12/18 08:44:52;;;;;;;4.00;2.50;;;;;;;3.65;100.00;100736.12;1855778;77;20963;-61
2022/12/18 08:47:21;;;;;;;3.30;2.33;;;;;;;3.61;100.00;100741.19;1855530;77;21044;-59
2022/12/18 08:49:49;;;;;;;3.43;2.40;;;;;;;3.57;100.00;100748.82;1854667;77;21191;-60
2022/12/18 08:52:16;;;;;;;4.13;2.50;;;;;;;3.54;100.00;100751.64;1854995;77;22465;-66
2022/12/18 08:54:44;;;;;;;3.83;2.60;;;;;;;3.52;100.00;100748.84;1855500;77;21667;-59
2022/12/18 08:57:11;;;;;;;4.80;3.57;;;;;;;3.48;100.00;100739.25;1855835;77;20974;-59
2022/12/18 08:59:38;;;;;;;3.97;2.57;;;;;;;3.45;100.00;100739.97;1856134;77;21079;-59
2022/12/18 09:02:05;;;;;;;4.75;3.10;;;;;;;3.40;100.00;100742.45;1855594;77;21918;-69
2022/12/18 09:04:33;;;;;;;4.25;2.70;;;;;;;3.41;100.00;100739.43;1855081;77;21485;-59
2022/12/18 09:07:00;;;;;;;3.40;2.50;;;;;;;3.40;100.00;100743.73;1855538;77;21930;-59
2022/12/18 09:09:27;;;;;;;3.92;2.83;;;;;;;3.41;100.00;100742.00;1825158;77;21147;-59
2022/12/18 09:11:54;;;;;;;5.12;3.05;;;;;;;3.43;100.00;100750.89;1855160;77;21018;-61
2022/12/18 09:14:23;;;;;;;4.25;2.80;;;;;;;3.43;100.00;100749.60;1845323;77;21253;-65
2022/12/18 09:16:50;;;;;;;4.60;2.90;;;;;;;3.40;100.00;100748.08;1844538;77;20834;-58
2022/12/18 09:19:18;;;;;;;4.03;2.60;;;;;;;3.38;100.00;100759.00;1844771;77;21349;-58
2022/12/18 09:21:46;;;;;;;4.12;3.05;;;;;;;3.35;100.00;100761.34;1845165;77;21232;-67
2022/12/18 09:24:15;;;;;;;3.92;3.00;;;;;;;3.36;100.00;100768.59;1844658;77;21655;-58
2022/12/18 09:26:42;;;;;;;3.37;2.47;;;;;;;3.35;100.00;100757.47;1844230;77;21244;-60
2022/12/18 09:29:10;;;;;;;3.80;2.65;;;;;;;3.35;100.00;100757.47;1844584;77;21127;-61
2022/12/18 09:31:37;;;;;;;2.98;2.05;;;;;;;3.35;100.00;100762.63;1845171;77;21447;-70
2022/12/18 09:34:04;;;;;;;3.40;2.15;;;;;;;3.30;100.00;100758.80;1792147;77;21013;-59
2022/12/18 09:36:31;;;;;;;3.40;2.25;;;;;;;3.25;100.00;100760.44;1844314;77;21295;-61
2022/12/18 09:38:59;;;;;;;3.95;2.52;;;;;;;3.25;100.00;100756.57;1845121;77;21092;-59
2022/12/18 09:41:47;;;;;;;4.62;2.55;;;;;;;3.22;100.00;100752.13;1844664;77;21036;-60
2022/12/18 09:44:39;;;;;;;3.77;2.17;;;;;;;3.20;100.00;100757.42;1844514;77;20949;-62
2022/12/18 09:47:20;;;;;;;4.40;2.72;;;;;;;3.20;100.00;100754.03;1844452;77;21522;-61
2022/12/18 09:49:51;;;;;;;3.60;2.33;;;;;;;3.17;100.00;100763.63;1844694;77;21091;-58
2022/12/18 09:52:29;;;;;;;3.52;2.20;;;;;;;3.16;100.00;100762.47;1844839;77;21110;-61
2022/12/18 09:55:07;;;;;;;3.80;2.42;;;;;;;3.15;100.00;100754.41;1844461;77;20977;-59
2022/12/18 09:57:34;;;;;;;4.17;2.62;;;;;;;3.13;100.00;100755.80;1844165;77;21553;-61
2022/12/18 10:00:10;;;;;;;3.75;2.52;;;;;;;3.09;100.00;100760.84;1844673;77;21067;-60
2022/12/18 10:02:42;;;;;;;4.55;3.10;;;;;;;3.06;100.00;100753.83;1844505;77;20866;-60
2022/12/18 10:05:38;;;;;;;3.75;2.67;;;;;;;3.02;100.00;100750.69;1844884;77;21408;-60
2022/12/18 10:08:27;;;;;;;4.28;2.52;;;;;;;2.98;100.00;100752.34;1844340;77;20997;-66
2022/12/18 10:11:00;;;;;;;4.00;3.08;;;;;;;2.95;100.00;100753.39;1844055;77;21024;-59
2022/12/18 10:13:47;;;;;;;4.97;3.27;;;;;;;2.95;100.00;100758.55;1849696;77;21006;-60
2022/12/18 10:16:28;;;;;;;4.17;2.60;;;;;;;2.93;100.00;100767.69;1855391;77;21426;-66
2022/12/18 10:19:37;;;;;;;4.45;2.92;;;;;;;2.95;100.00;100771.42;1819670;77;22574;-58
2022/12/18 10:22:19;;;;;;;3.75;2.85;;;;;;;2.94;100.00;100771.08;1854790;76;20984;-60
2022/12/18 10:25:26;;;;;;;6.60;4.23;;;;;;;2.97;100.00;100770.84;1807348;77;20942;-69
2022/12/18 10:27:57;;;;;;;4.70;3.10;;;;;;;2.99;100.00;100773.28;1855182;77;20965;-59
2022/12/18 10:30:25;;;;;;;5.28;2.77;;;;;;;2.98;100.00;100773.76;1855386;77;23932;-59
2022/12/18 10:32:54;;;;;;;4.25;2.72;;;;;;;2.94;100.00;100774.94;1855292;76;21258;-64
2022/12/18 10:35:24;;;;;;;3.77;2.72;;;;;;;2.90;100.00;100776.13;1855508;77;20967;-59
2022/12/18 10:38:16;;;;;;;4.13;2.53;;;;;;;2.85;100.00;100779.54;1855319;77;20836;-61
2022/12/18 10:40:57;;;;;;;4.67;3.62;;;;;;;2.81;100.00;100783.30;1855344;77;22376;-58
2022/12/18 10:43:31;;;;;;;4.97;3.27;;;;;;;2.76;100.00;100778.48;1851851;76;21069;-60
2022/12/18 10:46:11;;;;;;;4.90;3.25;;;;;;;2.72;100.00;100776.27;1855748;77;21327;-58
2022/12/18 10:48:52;;;;;;;4.35;2.80;;;;;;;2.68;100.00;100788.09;1855533;77;21374;-60
2022/12/18 10:51:34;;;;;;;3.60;2.40;;;;;;;2.64;100.00;100780.73;1855345;77;21417;-61
2022/12/18 10:54:05;;;;;;;4.28;2.83;;;;;;;2.57;100.00;100779.09;1855004;77;20982;-59
2022/12/18 10:56:35;;;;;;;4.17;2.95;;;;;;;2.54;100.00;100787.07;1855758;77;21003;-60
2022/12/18 10:59:06;;;;;;;5.37;3.35;;;;;;;2.53;100.00;100795.70;1854983;77;21647;-59
2022/12/18 11:01:56;;;;;;;4.12;2.60;;;;;;;2.55;100.00;100796.42;1854743;77;20966;-59
2022/12/18 11:04:27;;;;;;;3.83;2.65;;;;;;;2.56;100.00;100800.63;1854905;77;21053;-63
2022/12/18 11:07:03;;;;;;;4.90;3.10;;;;;;;2.56;100.00;100799.80;1855248;77;20989;-59
2022/12/18 11:09:32;;;;;;;4.42;3.12;;;;;;;2.62;100.00;100794.20;1854971;77;20967;-60
2022/12/18 11:12:06;;;;;;;5.37;3.90;;;;;;;2.65;100.00;100793.50;1855413;77;21231;-59
2022/12/18 11:14:49;;;;;;;4.03;2.85;;;;;;;2.64;100.00;100787.98;1848507;77;21543;-60
2022/12/18 11:17:22;;;;;;;4.95;3.77;;;;;;;2.60;100.00;100803.78;1823974;77;21489;-59
2022/12/18 11:19:55;;;;;;;5.30;3.85;;;;;;;2.57;100.00;100800.15;1855626;77;21050;-61
2022/12/18 11:22:29;;;;;;;4.53;3.17;;;;;;;2.54;100.00;100795.23;1854473;77;21050;-60
2022/12/18 11:25:13;;;;;;;6.62;4.42;;;;;;;2.51;100.00;100799.35;1854906;77;21219;-62
2022/12/18 11:27:40;;;;;;;6.42;4.58;;;;;;;2.46;100.00;100800.16;1854691;77;21021;-70
2022/12/18 11:30:12;;;;;;;5.17;3.67;;;;;;;2.40;100.00;100798.41;1855644;77;22342;-60
2022/12/18 11:32:41;;;;;;;5.35;3.72;;;;;;;2.37;100.00;100802.97;1853239;77;20994;-62
2022/12/18 11:35:13;;;;;;;6.10;3.92;;;;;;;2.33;100.00;100807.99;1855731;77;21021;-59
2022/12/18 11:37:43;;;;;;;4.85;3.67;;;;;;;2.31;100.00;100809.84;1854520;77;21589;-71
2022/12/18 11:40:14;;;;;;;5.08;3.70;;;;;;;2.29;100.00;100813.02;1855250;77;21686;-60
2022/12/18 11:42:50;;;;;;;6.08;4.30;;;;;;;2.28;100.00;100816.06;1855478;77;20959;-67
2022/12/18 11:45:31;;;;;;;6.17;3.62;;;;;;;2.25;100.00;100815.00;1855591;77;21531;-60
2022/12/18 11:48:08;;;;;;;5.95;3.83;;;;;;;2.21;100.00;100819.22;1856007;77;20954;-60
2022/12/18 11:50:57;;;;;;;6.08;4.10;;;;;;;2.15;100.00;100825.62;1853615;76;21881;-67